Time;durP1;ratioP1;P1;durP2;ratioP2;P2;SDS_P1;SDS_P2;PMS_P1;PMS_P2;Temp;Humidity;BMP_temperature;BMP_pressure;BME280_temperature;BME280_humidity;BME280_pressure;Samples;Min_cycle;Max_cycle;Signal;HPM_P1;HPM_P2
2023/05/11 00:01:27;;;;;;;0.60;0.50;;;13.30;99.90;;;;;;5046918;28;20204;-65
2023/05/11 00:03:55;;;;;;;0.50;0.40;;;13.30;99.90;;;;;;5044712;28;20393;-66
2023/05/11 00:06:24;;;;;;;0.50;0.40;;;13.20;99.90;;;;;;5032086;28;20218;-65
2023/05/11 00:08:51;;;;;;;0.70;0.40;;;13.00;99.90;;;;;;5038674;28;20640;-66
2023/05/11 00:11:20;;;;;;;0.50;0.40;;;13.00;99.90;;;;;;5030172;28;20291;-66
2023/05/11 00:13:47;;;;;;;0.70;0.40;;;12.90;99.90;;;;;;5032107;28;20232;-65
2023/05/11 00:16:17;;;;;;;0.60;0.40;;;12.90;99.90;;;;;;5041586;28;20315;-65
2023/05/11 00:18:45;;;;;;;0.60;0.40;;;12.90;99.90;;;;;;5043128;28;20576;-65
2023/05/11 00:21:12;;;;;;;0.50;0.40;;;12.90;99.90;;;;;;5041865;28;20205;-66
2023/05/11 00:23:40;;;;;;;0.60;0.40;;;12.90;99.90;;;;;;5046528;28;20303;-65
2023/05/11 00:26:08;;;;;;;0.60;0.40;;;12.70;99.90;;;;;;5035225;28;20667;-65
2023/05/11 00:28:36;;;;;;;0.60;0.50;;;12.70;99.90;;;;;;5030246;28;20208;-65
2023/05/11 00:31:04;;;;;;;0.70;0.50;;;12.60;99.90;;;;;;5033385;28;20208;-65
2023/05/11 00:33:34;;;;;;;0.52;0.40;;;12.60;99.90;;;;;;5030910;28;20235;-65
2023/05/11 00:36:03;;;;;;;0.50;0.40;;;12.70;99.90;;;;;;5031716;28;20311;-66
2023/05/11 00:38:31;;;;;;;0.60;0.45;;;12.70;99.90;;;;;;5042306;28;20232;-65
2023/05/11 00:40:59;;;;;;;0.70;0.45;;;12.80;99.90;;;;;;5036170;28;20224;-65
2023/05/11 00:43:27;;;;;;;0.60;0.40;;;12.80;99.90;;;;;;5044340;28;20238;-65
2023/05/11 00:45:55;;;;;;;0.57;0.40;;;12.80;99.90;;;;;;5045986;28;20204;-66
2023/05/11 00:48:23;;;;;;;0.50;0.40;;;12.70;99.90;;;;;;5041463;28;20342;-65
2023/05/11 00:50:52;;;;;;;0.60;0.45;;;12.70;99.90;;;;;;5048820;28;20635;-65
2023/05/11 00:53:20;;;;;;;0.50;0.40;;;12.70;99.90;;;;;;5033654;28;20259;-65
2023/05/11 00:55:48;;;;;;;0.50;0.40;;;12.70;99.90;;;;;;5033704;28;20298;-65
2023/05/11 00:58:16;;;;;;;0.50;0.40;;;12.80;99.90;;;;;;5038284;28;20219;-65
2023/05/11 01:00:46;;;;;;;0.60;0.40;;;12.90;99.90;;;;;;5033893;28;20216;-65
2023/05/11 01:03:15;;;;;;;0.85;0.50;;;13.00;99.90;;;;;;5033742;28;20232;-65
2023/05/11 01:05:49;;;;;;;0.50;0.40;;;13.00;99.90;;;;;;5030288;28;20327;-65
2023/05/11 01:08:24;;;;;;;0.50;0.30;;;13.10;99.90;;;;;;5033706;28;20207;-65
2023/05/11 01:11:02;;;;;;;0.70;0.50;;;13.10;99.90;;;;;;5033571;28;20296;-66
2023/05/11 01:13:34;;;;;;;0.50;0.40;;;13.00;99.90;;;;;;5033532;28;20320;-66
2023/05/11 01:16:11;;;;;;;0.50;0.40;;;12.90;99.90;;;;;;5033231;28;20213;-66
2023/05/11 01:18:41;;;;;;;0.50;0.30;;;13.00;99.90;;;;;;5044665;28;20212;-65
2023/05/11 01:21:13;;;;;;;0.70;0.50;;;13.10;99.90;;;;;;5053292;28;20234;-65
2023/05/11 01:24:19;;;;;;;0.55;0.43;;;13.10;99.90;;;;;;5037924;28;20225;-65
2023/05/11 01:27:06;;;;;;;0.60;0.55;;;13.10;99.90;;;;;;5026134;28;20287;-65
2023/05/11 01:30:02;;;;;;;0.68;0.40;;;13.30;99.90;;;;;;5033377;28;20622;-65
2023/05/11 01:32:33;;;;;;;0.60;0.52;;;13.30;99.90;;;;;;5032977;28;20664;-66
2023/05/11 01:35:08;;;;;;;0.80;0.80;;;13.30;99.90;;;;;;5033426;28;20243;-66
2023/05/11 01:37:38;;;;;;;0.60;0.40;;;13.20;99.90;;;;;;5032944;28;20770;-66
2023/05/11 01:40:12;;;;;;;0.50;0.40;;;13.10;99.90;;;;;;5038176;28;20747;-65
2023/05/11 01:42:44;;;;;;;0.50;0.40;;;13.10;99.90;;;;;;5032544;28;20284;-66
2023/05/11 01:45:14;;;;;;;0.50;0.40;;;13.10;99.90;;;;;;5046851;28;20204;-66
2023/05/11 01:47:46;;;;;;;0.50;0.40;;;13.10;99.90;;;;;;5035086;28;20552;-66
2023/05/11 01:50:16;;;;;;;0.65;0.45;;;13.10;99.90;;;;;;5044612;28;20203;-66
2023/05/11 01:52:47;;;;;;;0.60;0.40;;;13.10;99.90;;;;;;5025010;28;20233;-65
2023/05/11 01:55:19;;;;;;;0.88;0.60;;;13.10;99.90;;;;;;5032714;28;20218;-66
2023/05/11 01:57:48;;;;;;;0.50;0.40;;;13.10;99.90;;;;;;5031334;28;20259;-65
2023/05/11 02:00:17;;;;;;;0.50;0.40;;;13.00;99.90;;;;;;5032747;28;20208;-65
2023/05/11 02:02:48;;;;;;;0.50;0.40;;;13.10;99.90;;;;;;5025052;28;20274;-65
2023/05/11 02:05:18;;;;;;;1.05;0.50;;;13.10;99.90;;;;;;5032654;28;20227;-66
2023/05/11 02:07:48;;;;;;;0.50;0.38;;;12.90;99.90;;;;;;5031507;28;20201;-66
2023/05/11 02:10:18;;;;;;;0.50;0.40;;;12.90;99.90;;;;;;5032647;28;20236;-66
2023/05/11 02:12:51;;;;;;;0.50;0.40;;;12.90;99.90;;;;;;5025087;28;20227;-65
2023/05/11 02:15:21;;;;;;;0.50;0.30;;;13.00;99.90;;;;;;5035721;28;20204;-66
2023/05/11 02:17:52;;;;;;;0.60;0.50;;;13.00;99.90;;;;;;5036572;28;20248;-65
2023/05/11 02:20:20;;;;;;;0.60;0.40;;;12.90;99.90;;;;;;5051856;28;20203;-66
2023/05/11 02:22:50;;;;;;;0.50;0.40;;;13.00;99.90;;;;;;5032343;28;20252;-65
2023/05/11 02:25:18;;;;;;;0.50;0.40;;;13.00;99.90;;;;;;5032234;28;20197;-65
2023/05/11 02:27:46;;;;;;;0.50;0.40;;;13.00;99.90;;;;;;5032179;28;20283;-66
2023/05/11 02:30:14;;;;;;;0.70;0.47;;;13.00;99.90;;;;;;5036640;28;20732;-66
2023/05/11 02:32:57;;;;;;;0.60;0.40;;;13.00;99.90;;;;;;5032377;28;20597;-65
2023/05/11 02:35:29;;;;;;;0.60;0.40;;;12.80;99.90;;;;;;5032079;28;20258;-65
2023/05/11 02:38:02;;;;;;;0.50;0.40;;;12.80;99.90;;;;;;5032169;28;20782;-66
2023/05/11 02:40:33;;;;;;;0.50;0.40;;;12.70;99.90;;;;;;5031841;28;20236;-66
2023/05/11 02:43:07;;;;;;;0.60;0.60;;;12.70;99.90;;;;;;5031451;28;20663;-66
2023/05/11 02:45:37;;;;;;;0.50;0.40;;;12.70;99.90;;;;;;5033954;28;20258;-66
2023/05/11 02:48:10;;;;;;;0.70;0.50;;;12.70;99.90;;;;;;5048796;28;20240;-66
2023/05/11 02:50:40;;;;;;;0.70;0.68;;;12.70;99.90;;;;;;5048930;28;20219;-66
2023/05/11 02:53:15;;;;;;;0.50;0.40;;;12.70;99.90;;;;;;5031571;28;20670;-66
2023/05/11 02:55:43;;;;;;;0.55;0.40;;;12.70;99.90;;;;;;5031810;28;20250;-66
2023/05/11 02:58:11;;;;;;;0.50;0.40;;;12.70;99.90;;;;;;5031730;28;20307;-66
2023/05/11 03:00:39;;;;;;;0.60;0.43;;;12.70;99.90;;;;;;5030426;28;20240;-66
2023/05/11 03:03:08;;;;;;;0.50;0.40;;;12.50;99.90;;;;;;5030985;28;20232;-66
2023/05/11 03:05:36;;;;;;;0.70;0.50;;;12.40;99.90;;;;;;5045000;28;20222;-66
2023/05/11 03:08:05;;;;;;;0.50;0.40;;;12.40;99.90;;;;;;5031736;28;20200;-66
2023/05/11 03:10:33;;;;;;;0.50;0.40;;;12.20;99.90;;;;;;5031245;28;20215;-66
2023/05/11 03:13:02;;;;;;;0.57;0.45;;;12.10;99.90;;;;;;5031499;28;20648;-67
2023/05/11 03:15:30;;;;;;;0.60;0.40;;;12.20;99.90;;;;;;5031198;28;20200;-66
2023/05/11 03:17:59;;;;;;;0.70;0.40;;;12.20;99.90;;;;;;5031361;28;20684;-67
2023/05/11 03:20:30;;;;;;;0.70;0.55;;;12.10;99.90;;;;;;5047393;28;20299;-66
2023/05/11 03:22:58;;;;;;;0.60;0.60;;;12.00;99.90;;;;;;5037463;28;20259;-66
2023/05/11 03:25:27;;;;;;;0.70;0.70;;;12.00;99.90;;;;;;5031015;28;20699;-66
2023/05/11 03:27:56;;;;;;;0.60;0.50;;;11.90;99.90;;;;;;5039525;28;20680;-65
2023/05/11 03:30:26;;;;;;;0.50;0.40;;;11.90;99.90;;;;;;5039108;28;20283;-65
2023/05/11 03:32:54;;;;;;;1.45;0.82;;;11.90;99.90;;;;;;5035330;28;20306;-66
2023/05/11 03:35:25;;;;;;;0.60;0.50;;;11.90;99.90;;;;;;5034439;28;20205;-67
2023/05/11 03:37:57;;;;;;;0.50;0.40;;;11.90;99.90;;;;;;5024901;28;20227;-65
2023/05/11 03:40:26;;;;;;;0.60;0.50;;;11.80;99.90;;;;;;5033782;28;20287;-65
2023/05/11 03:42:56;;;;;;;0.90;0.60;;;11.80;99.90;;;;;;5030462;28;20232;-65
2023/05/11 03:45:27;;;;;;;0.68;0.40;;;11.80;99.90;;;;;;5030445;28;20399;-66
2023/05/11 03:47:56;;;;;;;0.60;0.43;;;11.80;99.90;;;;;;5035256;28;20313;-65
2023/05/11 03:50:25;;;;;;;0.57;0.45;;;11.80;99.90;;;;;;5040739;28;20212;-65
2023/05/11 03:52:55;;;;;;;0.63;0.47;;;11.80;99.90;;;;;;5030600;28;20231;-65
2023/05/11 03:55:23;;;;;;;0.98;0.80;;;11.80;99.90;;;;;;5036153;28;20204;-66
2023/05/11 03:57:51;;;;;;;0.63;0.50;;;11.60;99.90;;;;;;5030903;28;20251;-65
2023/05/11 04:00:19;;;;;;;0.60;0.50;;;11.60;99.90;;;;;;5030831;28;20223;-66
2023/05/11 04:02:47;;;;;;;0.60;0.50;;;11.60;99.90;;;;;;5030585;28;20655;-65
2023/05/11 04:05:17;;;;;;;0.60;0.50;;;11.60;99.90;;;;;;5030034;28;20258;-66
2023/05/11 04:07:45;;;;;;;0.70;0.50;;;11.50;99.90;;;;;;5030510;28;20242;-66
2023/05/11 04:10:14;;;;;;;0.60;0.40;;;11.50;99.90;;;;;;5030908;28;20208;-65
2023/05/11 04:12:42;;;;;;;0.70;0.60;;;11.60;99.90;;;;;;5042871;28;20227;-64
2023/05/11 04:15:11;;;;;;;0.50;0.40;;;11.50;99.90;;;;;;5030161;28;20218;-64
2023/05/11 04:17:38;;;;;;;0.98;0.60;;;11.40;99.90;;;;;;5034868;28;20323;-65
2023/05/11 04:20:08;;;;;;;0.70;0.52;;;11.50;99.90;;;;;;5038078;28;20294;-65
2023/05/11 04:22:36;;;;;;;0.60;0.50;;;11.70;99.90;;;;;;5045429;28;20203;-65
2023/05/11 04:25:04;;;;;;;0.65;0.50;;;11.90;99.90;;;;;;5044760;28;20238;-65
2023/05/11 04:27:34;;;;;;;0.60;0.50;;;12.10;99.90;;;;;;5036121;28;20211;-65
2023/05/11 04:30:02;;;;;;;0.50;0.32;;;12.20;99.90;;;;;;5037045;28;20212;-66
2023/05/11 04:32:30;;;;;;;0.50;0.40;;;12.40;99.90;;;;;;5036220;28;20209;-65
2023/05/11 04:34:58;;;;;;;0.60;0.55;;;12.50;99.90;;;;;;5036535;28;20224;-64
2023/05/11 04:37:26;;;;;;;0.63;0.40;;;12.60;99.90;;;;;;5030106;28;20208;-65
2023/05/11 04:39:53;;;;;;;0.50;0.40;;;12.60;99.90;;;;;;5035778;28;20197;-65
2023/05/11 04:42:21;;;;;;;0.55;0.40;;;12.70;99.90;;;;;;5036184;28;20583;-66
2023/05/11 04:44:53;;;;;;;0.50;0.43;;;12.80;99.90;;;;;;5039161;28;20238;-65
2023/05/11 04:47:21;;;;;;;0.50;0.40;;;12.80;99.90;;;;;;5047315;28;20258;-65
2023/05/11 04:49:49;;;;;;;0.60;0.50;;;12.90;99.90;;;;;;5039204;28;20658;-65
2023/05/11 04:52:17;;;;;;;0.70;0.50;;;13.00;99.90;;;;;;5040863;28;20232;-65
2023/05/11 04:54:45;;;;;;;0.50;0.40;;;13.10;99.90;;;;;;5037983;28;20287;-65
2023/05/11 04:57:13;;;;;;;0.60;0.60;;;13.10;99.90;;;;;;5042022;28;20275;-65
2023/05/11 04:59:41;;;;;;;0.70;0.60;;;13.20;99.90;;;;;;5036093;28;20781;-66
2023/05/11 05:02:10;;;;;;;0.50;0.40;;;13.20;99.90;;;;;;5036257;28;20201;-65
2023/05/11 05:04:38;;;;;;;0.95;0.50;;;13.30;99.90;;;;;;5042177;28;20228;-65
2023/05/11 05:07:06;;;;;;;0.60;0.40;;;13.40;99.90;;;;;;5035878;28;20677;-65
2023/05/11 05:09:34;;;;;;;0.50;0.40;;;13.50;99.90;;;;;;5035927;28;20287;-65
2023/05/11 05:12:01;;;;;;;0.60;0.40;;;13.50;99.90;;;;;;5036147;28;20574;-65
2023/05/11 05:14:30;;;;;;;2.45;0.68;;;13.50;99.90;;;;;;5035710;28;20315;-65
2023/05/11 05:16:59;;;;;;;1.80;1.05;;;13.50;99.90;;;;;;5036180;28;20676;-65
2023/05/11 05:19:28;;;;;;;0.70;0.52;;;13.60;99.90;;;;;;5052385;28;20223;-65
2023/05/11 05:21:56;;;;;;;0.60;0.60;;;13.70;99.90;;;;;;5041523;28;20285;-65
2023/05/11 05:24:24;;;;;;;0.50;0.40;;;13.80;99.90;;;;;;5032085;28;20755;-65
2023/05/11 05:26:52;;;;;;;0.50;0.40;;;13.90;99.90;;;;;;5032843;28;20629;-65
2023/05/11 05:29:20;;;;;;;0.60;0.60;;;13.70;99.90;;;;;;5032943;28;20647;-65
2023/05/11 05:31:48;;;;;;;0.60;0.50;;;13.80;99.90;;;;;;5032509;28;20754;-66
2023/05/11 05:34:16;;;;;;;0.60;0.40;;;13.90;99.90;;;;;;5032618;28;20314;-65
2023/05/11 05:36:45;;;;;;;0.80;0.57;;;14.00;99.90;;;;;;5032530;28;20216;-66
2023/05/11 05:39:13;;;;;;;0.50;0.40;;;14.00;99.90;;;;;;5038414;28;20296;-65
2023/05/11 05:41:41;;;;;;;0.75;0.75;;;14.10;99.90;;;;;;5032525;28;20235;-65
2023/05/11 05:44:09;;;;;;;0.50;0.40;;;14.10;99.90;;;;;;5032541;28;20793;-65
2023/05/11 05:46:37;;;;;;;0.70;0.70;;;14.10;99.90;;;;;;5031953;28;20212;-65
2023/05/11 05:49:05;;;;;;;1.08;0.50;;;14.00;99.90;;;;;;5045690;28;20598;-65
2023/05/11 05:51:33;;;;;;;0.60;0.50;;;14.10;99.90;;;;;;5043567;28;20288;-65
2023/05/11 05:56:54;;;;;;;0.80;0.60;;;14.20;99.90;;;;;;5032213;28;20208;-66
2023/05/11 05:59:23;;;;;;;0.60;0.55;;;14.10;99.90;;;;;;5032910;28;20642;-65
2023/05/11 06:01:51;;;;;;;0.68;0.55;;;14.10;99.90;;;;;;5032051;28;20208;-65
2023/05/11 06:04:18;;;;;;;0.50;0.40;;;14.10;99.90;;;;;;5032644;28;20319;-65
2023/05/11 06:06:47;;;;;;;0.60;0.50;;;14.10;99.90;;;;;;5032206;28;20212;-64
2023/05/11 06:09:16;;;;;;;0.70;0.50;;;14.20;99.90;;;;;;5032541;28;20219;-65
2023/05/11 06:11:44;;;;;;;0.60;0.40;;;14.30;99.90;;;;;;5032374;28;20293;-65
2023/05/11 06:14:12;;;;;;;0.60;0.50;;;14.30;99.90;;;;;;5032675;28;20217;-64
2023/05/11 06:16:40;;;;;;;0.60;0.50;;;14.30;99.90;;;;;;5032281;28;20212;-64
2023/05/11 06:19:08;;;;;;;0.70;0.60;;;14.40;99.90;;;;;;5032452;28;20303;-64
2023/05/11 06:21:36;;;;;;;0.82;0.50;;;14.30;99.90;;;;;;5032178;28;20679;-65
2023/05/11 06:24:04;;;;;;;0.60;0.40;;;14.20;99.90;;;;;;5032305;28;20304;-65
2023/05/11 06:26:33;;;;;;;0.60;0.45;;;14.30;99.90;;;;;;5035876;28;20643;-65
2023/05/11 06:29:01;;;;;;;0.60;0.60;;;14.30;99.90;;;;;;5024753;28;20240;-65
2023/05/11 06:31:29;;;;;;;0.60;0.40;;;14.30;99.90;;;;;;5032237;28;20243;-65
2023/05/11 06:33:57;;;;;;;0.90;0.60;;;14.30;99.90;;;;;;5031888;28;20225;-65
2023/05/11 06:36:25;;;;;;;0.70;0.50;;;14.30;99.90;;;;;;5031655;28;20228;-64
2023/05/11 06:38:53;;;;;;;0.95;0.75;;;14.10;99.90;;;;;;5032141;28;23247;-65
2023/05/11 06:41:21;;;;;;;0.60;0.40;;;14.00;99.90;;;;;;5032060;28;20243;-65
2023/05/11 06:43:51;;;;;;;1.00;0.70;;;14.10;99.90;;;;;;5032395;28;20243;-65
2023/05/11 06:46:20;;;;;;;1.10;1.00;;;14.10;99.90;;;;;;5031905;28;20234;-64
2023/05/11 06:48:49;;;;;;;1.77;1.05;;;14.00;99.90;;;;;;5014146;28;20213;-65
2023/05/11 06:51:17;;;;;;;0.60;0.60;;;13.80;99.90;;;;;;5031514;28;20267;-65
2023/05/11 06:53:45;;;;;;;0.73;0.73;;;13.80;99.90;;;;;;5031759;28;20662;-65
2023/05/11 06:56:13;;;;;;;1.45;0.85;;;13.80;99.90;;;;;;5044966;28;20288;-65
2023/05/11 06:58:41;;;;;;;1.15;1.05;;;13.90;99.90;;;;;;5050592;28;20632;-66
2023/05/11 07:01:11;;;;;;;0.57;0.45;;;13.90;99.90;;;;;;5031619;28;20291;-64
2023/05/11 07:03:39;;;;;;;0.60;0.50;;;14.00;99.90;;;;;;5031560;28;20757;-65
2023/05/11 07:06:07;;;;;;;0.60;0.50;;;13.90;99.90;;;;;;5031537;28;20232;-64
2023/05/11 07:08:35;;;;;;;0.60;0.50;;;14.00;99.90;;;;;;5030765;28;20676;-66
2023/05/11 07:11:03;;;;;;;0.75;0.68;;;13.90;99.90;;;;;;5031467;28;20239;-65
2023/05/11 07:13:31;;;;;;;1.35;1.20;;;13.90;99.90;;;;;;5031475;28;20224;-65
2023/05/11 07:15:59;;;;;;;0.65;0.50;;;14.10;99.90;;;;;;5030816;28;20201;-65
2023/05/11 07:18:28;;;;;;;0.60;0.55;;;14.30;99.90;;;;;;5031541;28;20212;-65
2023/05/11 07:20:56;;;;;;;0.60;0.40;;;14.20;99.90;;;;;;5031415;28;20311;-65
2023/05/11 07:23:24;;;;;;;0.50;0.40;;;14.10;99.90;;;;;;5031327;28;20316;-64
2023/05/11 07:25:56;;;;;;;1.25;0.40;;;14.10;99.90;;;;;;5041013;28;20238;-65
2023/05/11 07:28:24;;;;;;;0.55;0.50;;;14.10;99.90;;;;;;5041085;28;20207;-65
2023/05/11 07:30:52;;;;;;;0.60;0.40;;;14.10;99.90;;;;;;5032237;28;20199;-64
2023/05/11 07:33:27;;;;;;;0.60;0.60;;;14.30;99.90;;;;;;5031161;28;20219;-65
2023/05/11 07:35:55;;;;;;;1.98;1.05;;;14.40;99.90;;;;;;5030882;28;20259;-65
2023/05/11 07:38:23;;;;;;;0.75;0.55;;;14.70;99.90;;;;;;5031193;28;20596;-65
2023/05/11 07:40:51;;;;;;;0.70;0.63;;;14.80;99.90;;;;;;5030810;28;20262;-66
2023/05/11 07:43:19;;;;;;;0.60;0.40;;;14.70;99.90;;;;;;5030427;28;20264;-65
2023/05/11 07:45:46;;;;;;;0.50;0.43;;;14.70;99.90;;;;;;5030189;28;20291;-65
2023/05/11 07:48:15;;;;;;;1.20;0.40;;;14.80;99.90;;;;;;5030857;28;20287;-65
2023/05/11 07:50:44;;;;;;;0.57;0.43;;;14.80;99.90;;;;;;5030709;28;20284;-65
2023/05/11 07:53:12;;;;;;;0.50;0.40;;;14.80;99.90;;;;;;5030702;28;20228;-65
2023/05/11 07:55:40;;;;;;;0.50;0.40;;;14.70;99.90;;;;;;5039057;28;20211;-65
2023/05/11 07:58:08;;;;;;;0.68;0.60;;;14.80;99.90;;;;;;5050617;28;20271;-65
2023/05/11 08:00:36;;;;;;;0.70;0.70;;;14.80;99.90;;;;;;5034079;28;20229;-65
2023/05/11 08:03:05;;;;;;;0.73;0.57;;;14.70;99.90;;;;;;5026088;28;20281;-65
2023/05/11 08:05:36;;;;;;;0.60;0.50;;;14.70;99.90;;;;;;5035393;28;20568;-65
2023/05/11 08:08:05;;;;;;;1.00;0.90;;;14.70;99.90;;;;;;5030784;28;20287;-64
2023/05/11 08:10:35;;;;;;;0.50;0.40;;;14.80;99.90;;;;;;5030713;28;20274;-65
2023/05/11 08:13:02;;;;;;;0.50;0.40;;;14.80;99.90;;;;;;5030542;28;20307;-64
2023/05/11 08:15:31;;;;;;;0.70;0.50;;;14.90;99.90;;;;;;5030746;28;20287;-64
2023/05/11 08:17:59;;;;;;;0.60;0.50;;;15.00;99.90;;;;;;5029960;28;20220;-64
2023/05/11 08:20:27;;;;;;;0.60;0.50;;;15.10;99.90;;;;;;5030253;28;20298;-65
2023/05/11 08:22:55;;;;;;;0.60;0.45;;;15.20;99.90;;;;;;5030403;28;20268;-65
2023/05/11 08:25:24;;;;;;;0.50;0.30;;;15.20;99.90;;;;;;5030830;28;20291;-64
2023/05/11 08:27:52;;;;;;;0.50;0.40;;;15.20;99.90;;;;;;5036979;28;20303;-65
2023/05/11 08:30:20;;;;;;;0.60;0.50;;;15.20;99.90;;;;;;5030472;28;20730;-65
2023/05/11 08:32:48;;;;;;;0.50;0.40;;;15.20;99.90;;;;;;5030391;28;20228;-66
2023/05/11 08:35:26;;;;;;;0.73;0.52;;;15.20;99.90;;;;;;5030723;28;20291;-65
2023/05/11 08:37:53;;;;;;;0.57;0.40;;;15.20;99.90;;;;;;5030015;28;20211;-64
2023/05/11 08:40:23;;;;;;;0.65;0.50;;;15.20;99.90;;;;;;5029923;28;20717;-65
2023/05/11 08:42:55;;;;;;;0.90;0.65;;;15.30;99.90;;;;;;5030126;28;20275;-65
2023/05/11 08:45:25;;;;;;;0.80;0.40;;;15.30;99.90;;;;;;5030397;28;20283;-65
2023/05/11 08:47:53;;;;;;;1.15;0.93;;;15.40;99.90;;;;;;5030351;28;20205;-65
2023/05/11 08:50:22;;;;;;;0.60;0.60;;;15.50;99.90;;;;;;5030301;28;20200;-65
2023/05/11 08:52:50;;;;;;;0.60;0.50;;;15.60;99.90;;;;;;5029431;28;20239;-64
2023/05/11 08:55:18;;;;;;;0.80;0.80;;;15.60;99.90;;;;;;5035648;28;20232;-65
2023/05/11 08:57:48;;;;;;;0.90;0.50;;;15.70;99.90;;;;;;5042584;28;20215;-64
2023/05/11 09:00:18;;;;;;;1.33;0.82;;;15.70;99.90;;;;;;5040855;28;20810;-65
2023/05/11 09:02:47;;;;;;;1.52;1.35;;;15.50;99.90;;;;;;5033728;28;20278;-65
2023/05/11 09:05:15;;;;;;;0.80;0.80;;;15.50;99.90;;;;;;5033886;28;20251;-64
2023/05/11 09:07:46;;;;;;;0.60;0.60;;;15.50;99.90;;;;;;5033524;28;20402;-65
2023/05/11 09:10:14;;;;;;;0.60;0.50;;;15.60;99.90;;;;;;5033806;28;20723;-64
2023/05/11 09:12:42;;;;;;;0.60;0.50;;;15.70;99.90;;;;;;5033301;28;20263;-65
2023/05/11 09:15:11;;;;;;;1.15;0.73;;;15.80;99.90;;;;;;5033766;28;20292;-66
2023/05/11 09:17:40;;;;;;;0.70;0.65;;;15.90;99.90;;;;;;5033786;28;20200;-65
2023/05/11 09:20:09;;;;;;;0.60;0.45;;;16.20;99.90;;;;;;5025814;28;20232;-65
2023/05/11 09:22:43;;;;;;;0.77;0.70;;;16.20;99.90;;;;;;5033409;28;20240;-65
2023/05/11 09:25:12;;;;;;;1.52;1.27;;;16.30;99.90;;;;;;5036953;28;20203;-65
2023/05/11 09:27:45;;;;;;;1.20;1.02;;;16.10;99.90;;;;;;5053925;28;20266;-65
2023/05/11 09:30:15;;;;;;;0.73;0.55;;;16.20;99.90;;;;;;5026108;28;20205;-65
2023/05/11 09:32:54;;;;;;;0.63;0.57;;;16.20;99.90;;;;;;5033057;28;20239;-65
2023/05/11 09:35:24;;;;;;;0.60;0.50;;;16.20;99.90;;;;;;5033967;28;20200;-65
2023/05/11 09:38:01;;;;;;;0.68;0.50;;;16.20;99.90;;;;;;5033295;28;20271;-65
2023/05/11 09:40:30;;;;;;;0.60;0.60;;;16.20;99.90;;;;;;5033400;28;20220;-64
2023/05/11 09:43:02;;;;;;;0.63;0.50;;;16.10;99.90;;;;;;5032626;28;20796;-64
2023/05/11 09:45:38;;;;;;;0.65;0.60;;;16.00;99.90;;;;;;5033085;28;20295;-65
2023/05/11 09:48:14;;;;;;;0.90;0.70;;;15.80;99.90;;;;;;5033204;28;20282;-64
2023/05/11 09:50:43;;;;;;;1.40;0.95;;;15.80;99.90;;;;;;5033048;28;20238;-65
2023/05/11 09:53:11;;;;;;;0.75;0.75;;;15.80;99.90;;;;;;5025267;28;20648;-65
2023/05/11 09:55:39;;;;;;;0.88;0.70;;;15.90;99.90;;;;;;5040751;28;20208;-65
2023/05/11 09:58:08;;;;;;;0.70;0.50;;;16.00;99.90;;;;;;5052729;28;20295;-65
2023/05/11 10:00:49;;;;;;;0.93;0.68;;;16.10;99.90;;;;;;5037071;28;20801;-65
2023/05/11 10:03:19;;;;;;;0.90;0.90;;;16.30;99.90;;;;;;5032955;28;20706;-65
2023/05/11 10:05:57;;;;;;;0.70;0.50;;;16.20;99.90;;;;;;5032629;28;20258;-65
2023/05/11 10:08:29;;;;;;;1.02;1.02;;;16.20;99.90;;;;;;5032314;28;20300;-65
2023/05/11 10:10:57;;;;;;;0.50;0.40;;;16.30;99.90;;;;;;5032202;28;20255;-65
2023/05/11 10:13:26;;;;;;;0.60;0.50;;;16.50;99.90;;;;;;5032667;28;20256;-65
2023/05/11 10:15:54;;;;;;;0.70;0.70;;;16.70;99.90;;;;;;5032953;28;20287;-65
2023/05/11 10:18:24;;;;;;;0.63;0.52;;;16.70;99.90;;;;;;5032473;28;20266;-65
2023/05/11 10:20:53;;;;;;;0.73;0.70;;;16.70;99.90;;;;;;5032233;28;20217;-65
2023/05/11 10:23:21;;;;;;;0.60;0.50;;;16.70;99.90;;;;;;5032476;28;20239;-65
2023/05/11 10:25:50;;;;;;;0.50;0.30;;;16.80;99.90;;;;;;5036704;28;20219;-65
2023/05/11 10:28:18;;;;;;;1.00;0.90;;;16.90;99.90;;;;;;5039563;28;20204;-65
2023/05/11 10:30:47;;;;;;;0.80;0.43;;;16.90;99.90;;;;;;5031909;28;20642;-66
2023/05/11 10:33:16;;;;;;;0.70;0.60;;;16.60;99.90;;;;;;5032319;28;20684;-65
2023/05/11 10:35:46;;;;;;;0.70;0.60;;;16.60;99.90;;;;;;5032372;28;20201;-65
2023/05/11 10:38:15;;;;;;;0.60;0.40;;;16.60;99.90;;;;;;5040268;28;20200;-65
2023/05/11 10:40:45;;;;;;;2.55;1.15;;;16.60;99.90;;;;;;5031712;28;20270;-65
2023/05/11 10:43:36;;;;;;;0.85;0.50;;;16.60;99.90;;;;;;5023995;28;20278;-65
2023/05/11 10:46:15;;;;;;;0.70;0.70;;;16.70;99.90;;;;;;5032092;28;20290;-65
2023/05/11 10:48:58;;;;;;;0.60;0.50;;;16.80;99.90;;;;;;5031969;28;20674;-65
2023/05/11 10:51:48;;;;;;;0.75;0.73;;;16.80;99.90;;;;;;5025702;28;20207;-64
2023/05/11 10:54:41;;;;;;;0.60;0.50;;;16.80;99.90;;;;;;5019026;28;20323;-65
2023/05/11 10:57:28;;;;;;;0.50;0.40;;;17.00;99.90;;;;;;5044017;28;20678;-65
2023/05/11 11:00:34;;;;;;;0.90;0.60;;;17.00;99.90;;;;;;5031610;28;20667;-65
2023/05/11 11:03:09;;;;;;;0.60;0.40;;;16.90;99.90;;;;;;5031519;28;20725;-66
2023/05/11 11:05:37;;;;;;;0.73;0.73;;;16.90;99.90;;;;;;5031898;28;20577;-65
2023/05/11 11:08:08;;;;;;;1.08;0.80;;;17.00;99.90;;;;;;5031318;28;20588;-65
2023/05/11 11:10:38;;;;;;;0.70;0.70;;;17.10;99.90;;;;;;5031735;28;20235;-65
2023/05/11 11:13:07;;;;;;;1.23;1.00;;;17.20;99.90;;;;;;5031344;28;20228;-65
2023/05/11 11:16:10;;;;;;;0.73;0.73;;;17.20;99.90;;;;;;5031696;28;20204;-65
2023/05/11 11:18:42;;;;;;;0.65;0.60;;;17.50;99.90;;;;;;5027263;28;20212;-65
2023/05/11 11:21:14;;;;;;;0.70;0.65;;;17.50;99.90;;;;;;5030165;28;20227;-65
2023/05/11 11:23:47;;;;;;;0.50;0.40;;;17.60;99.90;;;;;;5031459;28;20228;-65
2023/05/11 11:26:17;;;;;;;0.68;0.65;;;17.70;99.90;;;;;;5044760;28;20204;-65
2023/05/11 11:29:08;;;;;;;0.60;0.55;;;17.60;99.90;;;;;;5050964;28;20283;-65
2023/05/11 11:31:37;;;;;;;1.20;0.55;;;17.70;99.90;;;;;;5025773;28;20283;-65
2023/05/11 11:34:36;;;;;;;0.75;0.75;;;17.80;99.90;;;;;;5031488;28;20223;-65
2023/05/11 11:37:05;;;;;;;0.65;0.50;;;17.90;99.90;;;;;;5031011;28;20706;-64
2023/05/11 11:39:49;;;;;;;1.00;0.93;;;17.90;99.90;;;;;;5030986;28;20667;-65
2023/05/11 11:42:19;;;;;;;0.60;0.60;;;17.60;99.90;;;;;;5023062;28;20682;-64
2023/05/11 11:44:47;;;;;;;0.75;0.50;;;17.40;99.90;;;;;;5030960;28;20327;-65
2023/05/11 11:47:16;;;;;;;0.60;0.60;;;17.30;99.90;;;;;;5030699;28;20228;-65
2023/05/11 11:49:45;;;;;;;0.70;0.65;;;17.20;99.90;;;;;;5030923;28;20674;-65
2023/05/11 11:52:14;;;;;;;0.70;0.70;;;17.10;99.90;;;;;;5030678;28;20208;-65
2023/05/11 11:54:45;;;;;;;0.65;0.65;;;17.00;99.90;;;;;;5030924;28;20233;-65
2023/05/11 11:57:49;;;;;;;0.93;0.82;;;16.90;99.90;;;;;;5033708;28;20196;-65
2023/05/11 12:00:21;;;;;;;0.75;0.70;;;16.90;99.90;;;;;;5022484;28;20210;-66
2023/05/11 12:02:49;;;;;;;1.05;0.50;;;17.00;99.90;;;;;;5030758;28;20224;-65
2023/05/11 12:05:21;;;;;;;1.00;0.80;;;17.00;99.90;;;;;;5022818;28;20292;-65
2023/05/11 12:07:51;;;;;;;0.60;0.50;;;17.10;99.90;;;;;;5030578;28;20299;-64
2023/05/11 12:10:20;;;;;;;0.70;0.70;;;17.20;99.90;;;;;;5030485;28;20637;-65
2023/05/11 12:12:53;;;;;;;1.23;0.70;;;17.00;99.90;;;;;;5031196;28;20707;-65
2023/05/11 12:15:25;;;;;;;0.70;0.60;;;17.00;99.90;;;;;;5030780;28;20222;-65
2023/05/11 12:17:53;;;;;;;0.68;0.68;;;17.00;99.90;;;;;;5047057;28;20303;-65
2023/05/11 12:20:22;;;;;;;1.60;1.35;;;17.10;99.90;;;;;;5038213;28;20208;-65
2023/05/11 12:22:51;;;;;;;0.60;0.50;;;17.20;99.90;;;;;;5028767;28;20235;-65
2023/05/11 12:25:20;;;;;;;0.82;0.77;;;17.30;99.90;;;;;;5028509;28;20231;-65
2023/05/11 12:27:53;;;;;;;0.60;0.60;;;17.40;99.90;;;;;;5030434;28;20262;-65
2023/05/11 12:30:24;;;;;;;1.38;0.85;;;17.70;99.90;;;;;;5023059;28;20231;-65
2023/05/11 12:32:52;;;;;;;0.60;0.60;;;17.80;99.90;;;;;;5033083;28;20266;-65
2023/05/11 12:35:24;;;;;;;2.55;0.60;;;17.80;99.90;;;;;;5027013;28;20291;-65
2023/05/11 12:37:52;;;;;;;0.70;0.70;;;17.80;99.90;;;;;;5033978;28;20211;-65
2023/05/11 12:40:20;;;;;;;0.80;0.60;;;17.70;99.90;;;;;;5026448;28;20678;-64
2023/05/11 12:43:16;;;;;;;0.82;0.82;;;17.50;99.90;;;;;;5039653;22;20230;31
2023/05/11 12:45:45;;;;;;;0.73;0.60;;;17.40;99.90;;;;;;4897384;29;20243;-70
2023/05/11 12:48:14;;;;;;;0.65;0.65;;;17.30;99.90;;;;;;4898639;29;20355;-70
2023/05/11 12:50:45;;;;;;;0.70;0.60;;;17.40;99.90;;;;;;4899079;29;20308;-70
2023/05/11 12:53:14;;;;;;;0.60;0.50;;;17.30;99.90;;;;;;4903813;29;20236;-70
2023/05/11 12:55:42;;;;;;;0.80;0.80;;;17.30;99.90;;;;;;4902176;29;20576;-70
2023/05/11 12:58:12;;;;;;;0.63;0.63;;;17.20;99.90;;;;;;4881272;29;20252;-70
2023/05/11 13:00:53;;;;;;;0.80;0.60;;;17.10;99.90;;;;;;4880250;29;20218;-70
2023/05/11 13:03:22;;;;;;;0.60;0.50;;;17.20;99.90;;;;;;4880182;29;20229;-69
2023/05/11 13:05:51;;;;;;;0.65;0.65;;;17.20;99.90;;;;;;4887591;29;20217;-70
2023/05/11 13:08:19;;;;;;;0.60;0.40;;;17.10;99.90;;;;;;4880018;29;20297;-70